createdAt,value
2022-11-15T00:02:41.768Z,99082.40
2022-11-15T00:05:39.359Z,99081.80
2022-11-15T00:08:38.277Z,99070.00
2022-11-15T00:11:35.978Z,99062.60
2022-11-15T00:14:33.595Z,99061.40
2022-11-15T00:17:31.201Z,99058.60
2022-11-15T00:20:28.803Z,99060.80
2022-11-15T00:23:26.472Z,99059.00
2022-11-15T00:26:24.122Z,99053.60
2022-11-15T00:29:21.741Z,99053.80
2022-11-15T00:32:19.356Z,99055.00
2022-11-15T00:35:16.952Z,99056.00
2022-11-15T00:38:14.590Z,99056.00
2022-11-15T00:41:12.195Z,99056.20
2022-11-15T00:44:09.843Z,99057.20
2022-11-15T00:47:07.491Z,99056.20
2022-11-15T00:50:05.337Z,99049.20
2022-11-15T00:53:02.920Z,99045.80
2022-11-15T00:56:00.512Z,99036.00
2022-11-15T00:58:58.099Z,99038.60
2022-11-15T01:01:55.684Z,99032.00
2022-11-15T01:04:53.163Z,99033.00
2022-11-15T01:07:50.631Z,99027.40
2022-11-15T01:10:48.617Z,99028.60
2022-11-15T01:13:46.085Z,99023.00
2022-11-15T01:16:43.599Z,99021.00
2022-11-15T01:19:41.052Z,99017.80
2022-11-15T01:22:38.523Z,99015.20
2022-11-15T01:25:35.993Z,99014.60
2022-11-15T01:28:33.452Z,99011.60
2022-11-15T01:31:31.573Z,99005.60
2022-11-15T01:34:29.081Z,99004.60
2022-11-15T01:37:27.974Z,99004.80
2022-11-15T01:40:25.540Z,99005.60
2022-11-15T01:43:23.201Z,99008.00
2022-11-15T01:46:20.748Z,99001.20
2022-11-15T01:49:18.269Z,99003.80
2022-11-15T01:52:15.968Z,98996.40
2022-11-15T01:55:13.509Z,99004.20
2022-11-15T01:58:10.997Z,99001.00
2022-11-15T02:01:08.595Z,98993.40
2022-11-15T02:04:06.118Z,98989.60
2022-11-15T02:07:03.646Z,98999.40
2022-11-15T02:10:01.177Z,98997.60
2022-11-15T02:12:58.708Z,99000.40
2022-11-15T02:16:00.361Z,98997.00
2022-11-15T02:19:00.245Z,98995.00
2022-11-15T02:21:57.741Z,98987.60
2022-11-15T02:24:55.253Z,98986.20
2022-11-15T02:27:52.775Z,98975.80
2022-11-15T02:30:50.275Z,98979.60
2022-11-15T02:33:47.767Z,98986.60
2022-11-15T02:36:45.399Z,98986.60
2022-11-15T02:39:42.838Z,98984.80
2022-11-15T02:42:58.081Z,98985.00
2022-11-15T02:45:55.556Z,98993.60
2022-11-15T02:48:53.025Z,98995.40
2022-11-15T02:51:50.828Z,98994.00
2022-11-15T02:54:48.333Z,98994.00
2022-11-15T02:57:45.788Z,98988.00
2022-11-15T03:00:43.331Z,98985.40
2022-11-15T03:03:40.855Z,98983.00
2022-11-15T03:06:38.553Z,98976.20
2022-11-15T03:09:36.025Z,98971.20
2022-11-15T03:12:35.111Z,98971.00
2022-11-15T03:15:32.623Z,98969.80
2022-11-15T03:18:30.126Z,98964.60
2022-11-15T03:21:27.584Z,98962.40
2022-11-15T03:24:26.319Z,98966.40
2022-11-15T03:27:23.878Z,98964.60
2022-11-15T03:30:21.361Z,98956.60
2022-11-15T03:33:18.811Z,98951.20
2022-11-15T03:36:16.308Z,98946.60
2022-11-15T03:39:19.203Z,98946.60
2022-11-15T03:42:18.047Z,98949.20
2022-11-15T03:45:15.507Z,98949.00
2022-11-15T03:48:12.972Z,98945.40
2022-11-15T03:51:10.410Z,98941.20
2022-11-15T03:54:07.894Z,98940.40
2022-11-15T03:57:05.365Z,98947.80
2022-11-15T04:00:02.867Z,98936.20
2022-11-15T04:03:00.437Z,98929.40
2022-11-15T04:05:57.873Z,98935.40
2022-11-15T04:08:55.343Z,98933.60
2022-11-15T04:11:52.806Z,98935.40
2022-11-15T04:15:08.228Z,98932.60
2022-11-15T04:18:05.838Z,98924.00
2022-11-15T04:21:17.158Z,98926.00
2022-11-15T04:24:14.619Z,98922.80
2022-11-15T04:27:13.931Z,98921.40
2022-11-15T04:30:11.378Z,98922.60
2022-11-15T04:33:08.828Z,98924.20
2022-11-15T04:36:23.951Z,98922.80
2022-11-15T04:39:21.350Z,98920.20
2022-11-15T04:42:18.818Z,98920.20
2022-11-15T04:45:16.816Z,98915.80
2022-11-15T04:48:14.307Z,98911.00
2022-11-15T04:51:11.788Z,98907.20
2022-11-15T04:54:09.240Z,98898.00
2022-11-15T04:57:06.718Z,98890.40
2022-11-15T05:00:04.950Z,98897.60
2022-11-15T05:03:20.255Z,98896.40
2022-11-15T05:06:17.741Z,98895.40
2022-11-15T05:09:15.384Z,98897.80
2022-11-15T05:12:12.834Z,98894.60
2022-11-15T05:15:10.302Z,98898.40
2022-11-15T05:18:07.799Z,98896.80
2022-11-15T05:21:05.255Z,98894.20
2022-11-15T05:24:02.707Z,98886.00
2022-11-15T05:27:00.139Z,98888.00
2022-11-15T05:29:57.609Z,98880.20
2022-11-15T05:32:55.065Z,98880.00
2022-11-15T05:35:52.519Z,98883.80
2022-11-15T05:38:50.008Z,98876.40
2022-11-15T05:41:47.475Z,98874.80
2022-11-15T05:44:44.942Z,98872.00
2022-11-15T05:47:42.397Z,98865.60
2022-11-15T05:50:39.903Z,98868.00
2022-11-15T05:53:37.808Z,98862.60
2022-11-15T05:56:35.296Z,98865.20
2022-11-15T05:59:32.766Z,98864.60
2022-11-15T06:02:30.284Z,98869.00
2022-11-15T06:05:27.818Z,98871.60
2022-11-15T06:08:25.281Z,98868.40
2022-11-15T06:11:22.767Z,98865.80
2022-11-15T06:14:20.260Z,98868.20
2022-11-15T06:17:17.713Z,98872.60
2022-11-15T06:20:15.201Z,98875.00
2022-11-15T06:23:12.908Z,98879.60
2022-11-15T06:26:10.361Z,98879.20
2022-11-15T06:29:07.806Z,98878.60
2022-11-15T06:32:05.241Z,98874.40
2022-11-15T06:35:02.699Z,98873.60
2022-11-15T06:38:00.143Z,98876.80
2022-11-15T06:40:57.586Z,98877.60
2022-11-15T06:43:55.021Z,98880.00
2022-11-15T06:46:52.457Z,98880.40
2022-11-15T06:49:49.888Z,98880.60
2022-11-15T06:52:47.328Z,98879.00
2022-11-15T06:55:44.785Z,98882.60
2022-11-15T06:58:42.236Z,98881.00
2022-11-15T07:01:39.738Z,98884.00
2022-11-15T07:04:38.076Z,98882.40
2022-11-15T07:07:35.585Z,98884.40
2022-11-15T07:10:33.172Z,98887.20
2022-11-15T07:13:30.964Z,98887.40
2022-11-15T07:16:28.610Z,98884.60
2022-11-15T07:19:26.073Z,98881.00
2022-11-15T07:22:23.509Z,98876.00
2022-11-15T07:25:20.999Z,98875.20
2022-11-15T07:28:18.574Z,98874.80
2022-11-15T07:31:16.084Z,98871.40
2022-11-15T07:34:13.527Z,98869.00
2022-11-15T07:37:10.976Z,98865.40
2022-11-15T07:40:08.439Z,98864.60
2022-11-15T07:43:05.926Z,98858.80
2022-11-15T07:46:03.393Z,98855.60
2022-11-15T07:49:00.856Z,98858.40
2022-11-15T07:51:58.377Z,98859.20
2022-11-15T07:54:55.852Z,98863.00
2022-11-15T07:57:53.309Z,98864.00
2022-11-15T08:00:50.758Z,98867.00
2022-11-15T08:03:48.237Z,98858.20
2022-11-15T08:06:45.755Z,98856.40
2022-11-15T08:09:43.280Z,98856.40
2022-11-15T08:12:40.819Z,98851.40
2022-11-15T08:15:38.316Z,98854.40
2022-11-15T08:18:35.797Z,98853.20
2022-11-15T08:21:33.214Z,98848.20
2022-11-15T08:24:30.684Z,98852.20
2022-11-15T08:27:28.185Z,98852.80
2022-11-15T08:30:25.725Z,98852.80
2022-11-15T08:33:23.208Z,98847.00
2022-11-15T08:36:21.661Z,98846.20
2022-11-15T08:39:19.099Z,98849.40
2022-11-15T08:42:20.083Z,98846.80
2022-11-15T08:45:17.858Z,98844.80
2022-11-15T08:48:15.844Z,98843.80
2022-11-15T08:51:13.339Z,98844.80
2022-11-15T08:54:10.996Z,98843.00
2022-11-15T08:57:08.607Z,98842.60
2022-11-15T09:00:06.121Z,98845.20
2022-11-15T09:03:04.156Z,98843.60
2022-11-15T09:06:01.697Z,98846.40
2022-11-15T09:08:59.325Z,98848.20
2022-11-15T09:12:01.426Z,98842.60
2022-11-15T09:15:00.363Z,98832.80
2022-11-15T09:17:57.891Z,98826.00
2022-11-15T09:20:55.413Z,98826.80
2022-11-15T09:23:53.530Z,98826.60
2022-11-15T09:26:51.042Z,98820.80
2022-11-15T09:29:48.532Z,98828.20
2022-11-15T09:32:46.035Z,98820.80
2022-11-15T09:35:43.558Z,98820.40
2022-11-15T09:38:43.442Z,98822.40
2022-11-15T09:41:40.981Z,98815.20
2022-11-15T09:44:38.500Z,98802.60
2022-11-15T09:47:35.988Z,98799.60
2022-11-15T09:50:33.481Z,98801.80
2022-11-15T09:54:13.721Z,98801.80
2022-11-15T09:56:49.093Z,98796.40
2022-11-15T09:59:46.551Z,98789.80
2022-11-15T10:02:45.085Z,98782.80
2022-11-15T10:05:45.342Z,98783.00
2022-11-15T10:08:42.796Z,98778.60
2022-11-15T10:11:40.314Z,98771.20
2022-11-15T10:14:37.796Z,98769.80
2022-11-15T10:17:35.266Z,98756.60
2022-11-15T10:20:34.020Z,98759.20
2022-11-15T10:23:31.527Z,98750.60
2022-11-15T10:26:29.432Z,98748.40
2022-11-15T10:29:27.527Z,98738.40
2022-11-15T10:32:25.091Z,98734.20
2022-11-15T10:35:22.519Z,98730.60
2022-11-15T10:38:19.998Z,98731.80
2022-11-15T10:41:17.461Z,98733.00
2022-11-15T10:44:14.929Z,98730.40
2022-11-15T10:47:14.692Z,98721.60
2022-11-15T10:50:12.149Z,98714.20
2022-11-15T10:53:09.615Z,98710.80
2022-11-15T10:56:07.064Z,98707.80
2022-11-15T10:59:04.649Z,98701.40
2022-11-15T11:02:02.120Z,98702.20
2022-11-15T11:04:59.611Z,98704.60
2022-11-15T11:07:57.099Z,98694.60
2022-11-15T11:11:00.257Z,98689.80
2022-11-15T11:13:59.940Z,98680.80
2022-11-15T11:16:57.725Z,98677.40
2022-11-15T11:19:55.186Z,98668.80
2022-11-15T11:22:52.660Z,98671.80
2022-11-15T11:25:50.137Z,98672.80
2022-11-15T11:28:47.597Z,98667.20
2022-11-15T11:31:45.056Z,98662.40
2022-11-15T11:34:42.613Z,98661.00
2022-11-15T11:37:40.051Z,98663.40
2022-11-15T11:40:37.491Z,98658.20
2022-11-15T11:43:34.954Z,98657.20
2022-11-15T11:46:32.533Z,98652.00
2022-11-15T11:49:30.000Z,98645.00
2022-11-15T11:52:28.135Z,98639.20
2022-11-15T11:55:25.602Z,98629.00
2022-11-15T11:58:23.122Z,98624.20
2022-11-15T12:01:20.602Z,98624.40
2022-11-15T12:04:18.112Z,98619.80
2022-11-15T12:07:15.603Z,98611.60
2022-11-15T12:10:13.147Z,98604.40
2022-11-15T12:13:10.677Z,98597.60
2022-11-15T12:16:10.429Z,98596.00
2022-11-15T12:19:08.217Z,98589.40
2022-11-15T12:22:05.689Z,98589.20
2022-11-15T12:25:03.171Z,98576.00
2022-11-15T12:28:01.395Z,98571.40
2022-11-15T12:30:58.907Z,98563.00
2022-11-15T12:33:56.357Z,98570.00
2022-11-15T12:36:54.394Z,98566.60
2022-11-15T12:39:51.855Z,98561.00
2022-11-15T12:42:49.307Z,98552.60
2022-11-15T12:45:46.770Z,98555.40
2022-11-15T12:48:44.433Z,98552.80
2022-11-15T12:51:41.879Z,98549.60
2022-11-15T12:54:39.614Z,98544.00
2022-11-15T12:57:37.460Z,98536.60
2022-11-15T13:00:34.927Z,98534.20
2022-11-15T13:03:32.386Z,98527.20
2022-11-15T13:06:29.853Z,98526.40
2022-11-15T13:09:27.479Z,98526.00
2022-11-15T13:12:24.949Z,98526.00
2022-11-15T13:15:23.037Z,98520.60
2022-11-15T13:18:20.492Z,98512.20
2022-11-15T13:21:31.834Z,98508.00
2022-11-15T13:24:29.303Z,98504.60
2022-11-15T13:27:26.766Z,98503.80
2022-11-15T13:30:24.258Z,98503.60
2022-11-15T13:33:21.734Z,98508.00
2022-11-15T13:36:19.187Z,98503.40
2022-11-15T13:39:16.700Z,98505.40
2022-11-15T13:42:14.136Z,98499.60
2022-11-15T13:45:11.598Z,98494.00
2022-11-15T13:48:09.128Z,98490.20
2022-11-15T13:51:06.593Z,98484.00
2022-11-15T13:54:04.048Z,98481.20
2022-11-15T13:57:01.510Z,98475.60
2022-11-15T13:59:58.998Z,98475.00
2022-11-15T14:02:56.449Z,98468.20
2022-11-15T14:05:53.919Z,98456.80
2022-11-15T14:08:51.409Z,98446.00
2022-11-15T14:11:48.951Z,98450.00
2022-11-15T14:14:46.421Z,98444.40
2022-11-15T14:17:49.745Z,98452.60
2022-11-15T14:20:47.658Z,98451.60
2022-11-15T14:23:45.115Z,98449.40
2022-11-15T14:26:43.282Z,98450.80
2022-11-15T14:29:40.713Z,98451.20
2022-11-15T14:32:38.205Z,98454.40
2022-11-15T14:35:35.686Z,98454.60
2022-11-15T14:38:33.408Z,98454.00
2022-11-15T14:41:33.639Z,98444.00
2022-11-15T14:44:31.103Z,98440.20
2022-11-15T14:47:28.561Z,98434.40
2022-11-15T14:50:26.037Z,98431.60
2022-11-15T14:53:23.526Z,98430.00
2022-11-15T14:56:21.028Z,98426.80
2022-11-15T14:59:18.463Z,98422.80
2022-11-15T15:02:15.913Z,98425.00
2022-11-15T15:05:13.353Z,98420.60
2022-11-15T15:08:10.950Z,98418.60
2022-11-15T15:11:08.493Z,98418.00
2022-11-15T15:14:05.962Z,98418.00
2022-11-15T15:17:03.480Z,98421.00
2022-11-15T15:20:00.922Z,98420.80
2022-11-15T15:22:58.390Z,98421.00
2022-11-15T15:25:55.851Z,98415.60
2022-11-15T15:28:53.323Z,98412.60
2022-11-15T15:31:50.783Z,98408.80
2022-11-15T15:34:48.230Z,98410.40
2022-11-15T15:37:45.722Z,98404.60
2022-11-15T15:40:43.183Z,98404.00
2022-11-15T15:43:41.397Z,98402.40
2022-11-15T15:46:38.863Z,98400.00
2022-11-15T15:49:36.363Z,98395.60
2022-11-15T15:52:33.963Z,98393.00
2022-11-15T15:55:31.420Z,98392.00
2022-11-15T15:58:28.896Z,98390.40
2022-11-15T16:01:27.000Z,98388.80
2022-11-15T16:04:28.981Z,98378.60
2022-11-15T16:07:26.466Z,98376.40
2022-11-15T16:10:23.983Z,98374.20
2022-11-15T16:13:21.443Z,98371.80
2022-11-15T16:16:18.894Z,98368.00
2022-11-15T16:19:16.650Z,98366.20
2022-11-15T16:22:14.127Z,98366.80
2022-11-15T16:25:11.605Z,98360.20
2022-11-15T16:28:09.373Z,98362.20
2022-11-15T16:31:06.876Z,98358.00
2022-11-15T16:34:04.434Z,98366.40
2022-11-15T16:37:02.078Z,98369.00
2022-11-15T16:40:01.168Z,98371.20
2022-11-15T16:42:59.999Z,98374.20
2022-11-15T16:45:57.740Z,98371.20
2022-11-15T16:48:55.241Z,98364.60
2022-11-15T16:51:53.542Z,98358.00
2022-11-15T16:54:51.059Z,98357.00
2022-11-15T16:57:55.127Z,98360.40
2022-11-15T17:00:55.528Z,98362.80
2022-11-15T17:03:54.440Z,98355.60
2022-11-15T17:06:52.837Z,98357.80
2022-11-15T17:09:50.424Z,98357.60
2022-11-15T17:12:48.244Z,98357.40
2022-11-15T17:15:46.218Z,98359.40
2022-11-15T17:18:45.913Z,98355.40
2022-11-15T17:21:43.471Z,98353.80
2022-11-15T17:24:42.768Z,98346.60
2022-11-15T17:27:41.138Z,98345.40
2022-11-15T17:30:39.772Z,98343.20
2022-11-15T17:33:38.095Z,98342.00
2022-11-15T17:36:36.112Z,98334.60
2022-11-15T17:39:33.740Z,98333.00
2022-11-15T17:42:33.219Z,98330.40
2022-11-15T17:45:31.419Z,98334.20
2022-11-15T17:48:29.141Z,98328.00
2022-11-15T17:51:27.791Z,98317.00
2022-11-15T17:54:29.678Z,98315.00
2022-11-15T17:57:27.733Z,98313.20
2022-11-15T18:00:27.720Z,98307.00
2022-11-15T18:03:25.805Z,98306.80
2022-11-15T18:06:25.801Z,98300.60
2022-11-15T18:09:26.577Z,98302.20
2022-11-15T18:12:24.701Z,98298.40
2022-11-15T18:15:23.225Z,98296.20
2022-11-15T18:18:20.829Z,98290.40
2022-11-15T18:21:18.825Z,98293.20
2022-11-15T18:24:17.407Z,98292.80
2022-11-15T18:27:15.911Z,98294.40
2022-11-15T18:30:13.668Z,98287.00
2022-11-15T18:33:11.452Z,98283.00
2022-11-15T18:36:09.608Z,98280.20
2022-11-15T18:39:07.767Z,98279.00
2022-11-15T18:42:06.856Z,98282.20
2022-11-15T18:45:04.967Z,98278.40
2022-11-15T18:48:03.350Z,98278.80
2022-11-15T18:51:04.893Z,98286.60
2022-11-15T18:54:03.804Z,98285.00
2022-11-15T18:57:04.284Z,98277.80
2022-11-15T19:00:03.402Z,98272.20
2022-11-15T19:03:01.847Z,98268.00
2022-11-15T19:06:01.368Z,98274.00
2022-11-15T19:08:59.113Z,98268.40
2022-11-15T19:11:57.137Z,98263.80
2022-11-15T19:14:55.478Z,98263.20
2022-11-15T19:17:53.759Z,98259.20
2022-11-15T19:20:52.079Z,98259.80
2022-11-15T19:23:50.341Z,98259.00
2022-11-15T19:26:48.927Z,98260.80
2022-11-15T19:29:47.019Z,98262.20
2022-11-15T19:32:47.891Z,98270.20
2022-11-15T19:35:46.141Z,98269.80
2022-11-15T19:38:48.819Z,98261.00
2022-11-15T19:41:46.820Z,98259.80
2022-11-15T19:44:44.980Z,98254.60
2022-11-15T19:47:44.851Z,98250.80
2022-11-15T19:50:43.100Z,98247.40
2022-11-15T19:53:41.854Z,98246.20
2022-11-15T19:56:41.931Z,98241.80
2022-11-15T19:59:40.826Z,98241.80
2022-11-15T20:02:38.838Z,98235.00
2022-11-15T20:05:37.045Z,98233.80
2022-11-15T20:08:35.515Z,98226.80
2022-11-15T20:11:35.491Z,98230.00
2022-11-15T20:14:33.254Z,98226.60
2022-11-15T20:17:31.283Z,98222.00
2022-11-15T20:20:30.757Z,98216.00
2022-11-15T20:23:28.935Z,98214.60
2022-11-15T20:26:28.036Z,98206.40
2022-11-15T20:29:26.580Z,98197.80
2022-11-15T20:32:24.480Z,98201.00
2022-11-15T20:35:24.138Z,98201.00
2022-11-15T20:38:21.957Z,98193.00
2022-11-15T20:41:23.118Z,98190.40
2022-11-15T20:44:20.878Z,98184.00
2022-11-15T20:47:19.266Z,98191.40
2022-11-15T20:50:41.012Z,98197.80
2022-11-15T20:53:34.824Z,98196.20
2022-11-15T20:56:32.955Z,98199.60
2022-11-15T20:59:30.743Z,98192.00
2022-11-15T21:02:29.250Z,98190.60
2022-11-15T21:05:26.937Z,98185.20
2022-11-15T21:08:24.860Z,98187.40
2022-11-15T21:11:40.332Z,98189.40
2022-11-15T21:14:38.248Z,98181.60
2022-11-15T21:17:35.786Z,98184.20
2022-11-15T21:20:33.614Z,98180.80
2022-11-15T21:23:31.795Z,98183.20
2022-11-15T21:26:29.350Z,98181.20
2022-11-15T21:29:26.843Z,98183.20
2022-11-15T21:32:24.356Z,98183.60
2022-11-15T21:35:22.786Z,98184.20
2022-11-15T21:38:20.311Z,98180.00
2022-11-15T21:41:18.001Z,98182.80
2022-11-15T21:44:15.532Z,98178.80
2022-11-15T21:47:13.042Z,98174.40
2022-11-15T21:50:10.558Z,98168.20
2022-11-15T21:53:08.105Z,98163.00
2022-11-15T21:56:05.566Z,98158.60
2022-11-15T21:59:04.824Z,98154.00
2022-11-15T22:02:17.769Z,98150.40
2022-11-15T22:05:15.353Z,98148.60
2022-11-15T22:08:12.915Z,98147.40
2022-11-15T22:11:10.423Z,98151.80
2022-11-15T22:14:07.971Z,98152.40
2022-11-15T22:17:05.504Z,98149.60
2022-11-15T22:20:22.877Z,98152.60
2022-11-15T22:23:20.640Z,98152.60
2022-11-15T22:26:22.987Z,98144.00
2022-11-15T22:29:21.267Z,98143.80
2022-11-15T22:32:18.867Z,98141.20
2022-11-15T22:35:16.800Z,98135.00
2022-11-15T22:38:14.304Z,98123.00
2022-11-15T22:41:12.670Z,98118.80
2022-11-15T22:44:10.256Z,98117.00
2022-11-15T22:47:07.826Z,98114.80
2022-11-15T22:50:06.654Z,98112.20
2022-11-15T22:53:04.224Z,98108.00
2022-11-15T22:56:01.774Z,98104.80
2022-11-15T22:58:59.324Z,98101.20
2022-11-15T23:02:02.048Z,98100.40
2022-11-15T23:04:59.592Z,98101.80
2022-11-15T23:07:57.126Z,98100.80
2022-11-15T23:11:12.175Z,98099.80
2022-11-15T23:14:10.897Z,98088.60
2022-11-15T23:17:08.471Z,98087.60
2022-11-15T23:20:22.526Z,98080.80
2022-11-15T23:23:23.571Z,98080.60
2022-11-15T23:26:21.109Z,98081.40
2022-11-15T23:29:18.669Z,98086.00
2022-11-15T23:32:34.623Z,98080.80
2022-11-15T23:35:32.255Z,98077.20
2022-11-15T23:38:29.982Z,98074.40
2022-11-15T23:41:27.747Z,98076.40
2022-11-15T23:44:25.275Z,98074.60
2022-11-15T23:47:22.863Z,98068.40
2022-11-15T23:50:20.457Z,98064.60
2022-11-15T23:53:17.998Z,98052.20
2022-11-15T23:56:15.536Z,98048.40
2022-11-15T23:59:13.119Z,98043.40
